createdAt,value
2022-08-05T00:01:53.160Z,13.00
2022-08-05T00:04:55.778Z,12.70
2022-08-05T00:08:00.147Z,11.80
2022-08-05T00:11:07.522Z,12.00
2022-08-05T00:14:27.587Z,11.00
2022-08-05T00:17:31.827Z,11.30
2022-08-05T00:20:34.039Z,12.50
2022-08-05T00:23:45.850Z,12.20
2022-08-05T00:26:50.701Z,11.50
2022-08-05T00:29:54.325Z,11.70
2022-08-05T00:32:58.283Z,12.40
2022-08-05T00:36:14.913Z,12.70
2022-08-05T00:39:18.427Z,12.90
2022-08-05T00:42:31.938Z,12.20
2022-08-05T00:45:42.742Z,12.90
2022-08-05T00:48:50.849Z,13.60
2022-08-05T00:51:53.288Z,13.70
2022-08-05T00:54:55.984Z,13.60
2022-08-05T00:57:59.332Z,13.80
2022-08-05T01:01:01.463Z,13.60
2022-08-05T01:04:03.851Z,13.10
2022-08-05T01:07:15.794Z,14.00
2022-08-05T01:10:25.744Z,14.00
2022-08-05T01:13:57.678Z,13.50
2022-08-05T01:17:05.495Z,12.90
2022-08-05T01:20:39.180Z,12.10
2022-08-05T01:23:54.729Z,12.20
2022-08-05T01:27:19.451Z,13.60
2022-08-05T01:30:34.631Z,13.60
2022-08-05T01:33:49.120Z,13.50
2022-08-05T01:37:00.639Z,14.80
2022-08-05T01:40:04.247Z,14.90
2022-08-05T01:43:06.495Z,13.60
2022-08-05T01:46:37.838Z,15.20
2022-08-05T01:50:01.781Z,14.30
2022-08-05T01:52:55.063Z,14.00
2022-08-05T01:55:59.185Z,15.20
2022-08-05T01:59:12.456Z,14.20
2022-08-05T02:02:17.784Z,14.40
2022-08-05T02:05:23.424Z,14.20
2022-08-05T02:08:29.664Z,14.90
2022-08-05T02:11:52.216Z,14.90
2022-08-05T02:18:30.615Z,15.10
2022-08-05T02:21:43.301Z,14.30
2022-08-05T02:24:52.561Z,14.80
2022-08-05T02:27:58.586Z,14.50
2022-08-05T02:31:14.839Z,14.80
2022-08-05T02:34:17.551Z,14.60
2022-08-05T02:37:21.373Z,15.20
2022-08-05T02:40:24.550Z,14.60
2022-08-05T02:43:28.458Z,15.10
2022-08-05T02:46:31.079Z,14.70
2022-08-05T02:49:40.703Z,15.70
2022-08-05T02:52:46.015Z,16.10
2022-08-05T02:55:59.510Z,15.60
2022-08-05T02:59:02.270Z,14.80
2022-08-05T03:02:04.855Z,14.40
2022-08-05T03:05:10.174Z,14.40
2022-08-05T03:08:12.963Z,14.90
2022-08-05T03:11:54.671Z,16.20
2022-08-05T03:14:48.186Z,16.00
2022-08-05T03:17:53.885Z,14.70
2022-08-05T03:20:57.222Z,15.70
2022-08-05T03:23:59.894Z,14.70
2022-08-05T03:27:06.646Z,14.90
2022-08-05T03:30:09.374Z,15.50
2022-08-05T03:33:11.375Z,14.30
2022-08-05T03:36:14.447Z,15.00
2022-08-05T03:39:20.061Z,16.00
2022-08-05T03:42:32.269Z,16.20
2022-08-05T03:45:58.365Z,15.80
2022-08-05T03:48:56.560Z,16.60
2022-08-05T03:52:37.067Z,15.40
2022-08-05T03:56:03.680Z,14.80
2022-08-05T03:59:02.080Z,13.50
2022-08-05T04:02:05.005Z,12.80
2022-08-05T04:05:10.140Z,12.50
2022-08-05T04:08:14.574Z,12.00
2022-08-05T04:11:17.285Z,11.20
2022-08-05T04:14:30.404Z,12.10
2022-08-05T04:17:55.489Z,11.70
2022-08-05T04:20:57.398Z,12.00
2022-08-05T04:24:06.733Z,11.60
2022-08-05T04:27:11.001Z,11.90
2022-08-05T04:30:12.944Z,12.60
2022-08-05T04:33:16.440Z,11.60
2022-08-05T04:36:45.518Z,12.10
2022-08-05T04:39:52.914Z,10.80
2022-08-05T04:42:57.642Z,10.70
2022-08-05T04:45:59.909Z,10.10
2022-08-05T04:49:01.574Z,9.70
2022-08-05T04:52:04.093Z,8.80
2022-08-05T04:55:14.517Z,9.50
2022-08-05T04:58:21.488Z,9.50
2022-08-05T05:01:33.842Z,8.80
2022-08-05T05:04:49.751Z,8.50
2022-08-05T05:07:56.676Z,8.40
2022-08-05T05:11:03.080Z,8.70
2022-08-05T05:14:05.126Z,8.40
2022-08-05T05:17:10.330Z,8.20
2022-08-05T05:20:13.822Z,8.20
2022-08-05T05:23:19.587Z,7.60
2022-08-05T05:26:28.619Z,7.80
2022-08-05T05:30:03.496Z,7.10
2022-08-05T05:32:57.221Z,7.30
2022-08-05T05:36:03.152Z,6.80
2022-08-05T05:39:05.021Z,7.00
2022-08-05T05:42:11.285Z,6.90
2022-08-05T05:45:15.883Z,6.60
2022-08-05T05:48:17.653Z,6.30
2022-08-05T05:51:29.259Z,6.60
2022-08-05T05:54:51.320Z,6.70
2022-08-05T05:57:53.455Z,6.00
2022-08-05T06:00:55.192Z,6.20
2022-08-05T06:04:01.879Z,6.80
2022-08-05T06:07:05.470Z,6.30
2022-08-05T06:10:10.511Z,6.10
2022-08-05T06:13:12.526Z,6.10
2022-08-05T06:16:30.806Z,6.40
2022-08-05T06:19:35.680Z,6.30
2022-08-05T06:22:37.781Z,6.20
2022-08-05T06:26:13.831Z,6.70
2022-08-05T06:29:21.134Z,5.80
2022-08-05T06:32:28.802Z,6.20
2022-08-05T06:36:07.802Z,5.50
2022-08-05T06:38:54.865Z,6.00
2022-08-05T06:41:58.706Z,5.70
2022-08-05T06:45:06.466Z,5.80
2022-08-05T06:48:36.061Z,5.70
2022-08-05T06:51:32.802Z,5.40
2022-08-05T06:54:34.803Z,5.40
2022-08-05T06:57:57.716Z,5.60
2022-08-05T07:01:00.672Z,5.60
2022-08-05T07:04:03.096Z,5.30
2022-08-05T07:07:06.253Z,4.90
2022-08-05T07:10:10.788Z,5.30
2022-08-05T07:13:59.217Z,5.30
2022-08-05T07:17:58.332Z,5.40
2022-08-05T07:20:34.037Z,5.30
2022-08-05T07:23:40.598Z,5.20
2022-08-05T07:26:52.091Z,5.10
2022-08-05T07:30:29.905Z,5.00
2022-08-05T07:33:16.113Z,4.70
2022-08-05T07:36:20.269Z,4.90
2022-08-05T07:39:24.836Z,4.80
2022-08-05T07:42:44.832Z,4.60
2022-08-05T07:45:57.623Z,4.50
2022-08-05T07:49:05.917Z,4.50
2022-08-05T07:52:08.271Z,4.90
2022-08-05T07:55:44.619Z,4.40
2022-08-05T07:58:58.584Z,4.50
2022-08-05T08:01:57.844Z,4.70
2022-08-05T08:05:00.735Z,5.00
2022-08-05T08:08:03.068Z,4.40
2022-08-05T08:11:04.945Z,5.00
2022-08-05T08:14:10.970Z,4.40
2022-08-05T08:17:21.513Z,4.60
2022-08-05T08:21:00.568Z,4.50
2022-08-05T08:24:01.571Z,4.50
2022-08-05T08:27:07.269Z,4.30
2022-08-05T08:30:28.607Z,4.80
2022-08-05T08:33:37.841Z,4.50
2022-08-05T08:36:47.381Z,4.70
2022-08-05T08:39:52.688Z,4.50
2022-08-05T08:42:54.956Z,4.20
2022-08-05T08:45:59.436Z,3.90
2022-08-05T08:50:23.438Z,4.10
2022-08-05T08:52:33.526Z,4.40
2022-08-05T08:56:03.439Z,4.30
2022-08-05T08:58:59.354Z,4.20
2022-08-05T09:02:08.538Z,4.20
2022-08-05T09:05:17.569Z,4.40
2022-08-05T09:08:20.349Z,3.80
2022-08-05T09:14:57.070Z,4.00
2022-08-05T09:18:01.286Z,4.10
2022-08-05T09:21:04.868Z,4.10
2022-08-05T09:24:13.746Z,4.00
2022-08-05T09:28:05.387Z,4.00
2022-08-05T09:31:22.831Z,4.20
2022-08-05T09:34:26.477Z,4.20
2022-08-05T09:38:12.564Z,4.10
2022-08-05T09:40:53.870Z,3.70
2022-08-05T09:43:56.061Z,3.90
2022-08-05T09:47:12.663Z,4.30
2022-08-05T09:50:37.373Z,3.60
2022-08-05T09:53:54.895Z,3.60
2022-08-05T09:57:02.039Z,4.20
2022-08-05T10:00:24.759Z,4.20
2022-08-05T10:03:56.833Z,4.10
2022-08-05T10:06:59.322Z,4.20
2022-08-05T10:10:14.126Z,4.20
2022-08-05T10:13:45.853Z,3.70
2022-08-05T10:16:52.631Z,3.90
2022-08-05T10:20:03.933Z,4.00
2022-08-05T10:23:34.643Z,4.40
2022-08-05T10:26:36.602Z,4.00
2022-08-05T10:30:06.433Z,3.70
2022-08-05T10:33:14.522Z,3.90
2022-08-05T10:36:17.161Z,3.90
2022-08-05T10:42:51.181Z,4.10
2022-08-05T10:46:06.496Z,3.90
2022-08-05T10:49:10.497Z,3.60
2022-08-05T10:52:49.727Z,3.80
2022-08-05T10:56:28.027Z,3.90
2022-08-05T11:00:02.189Z,3.60
2022-08-05T11:03:23.087Z,3.70
2022-08-05T11:06:30.887Z,4.10
2022-08-05T11:09:46.166Z,3.60
2022-08-05T11:12:54.288Z,3.90
2022-08-05T11:16:21.580Z,3.80
2022-08-05T11:20:10.166Z,3.60
2022-08-05T11:22:58.041Z,3.90
2022-08-05T11:26:08.745Z,3.90
2022-08-05T11:29:34.479Z,3.60
2022-08-05T11:32:36.391Z,3.80
2022-08-05T11:36:08.212Z,3.50
2022-08-05T11:39:15.022Z,3.70
2022-08-05T11:42:23.572Z,3.40
2022-08-05T11:46:27.302Z,3.30
2022-08-05T11:48:51.804Z,3.80
2022-08-05T11:51:54.511Z,3.40
2022-08-05T11:55:07.665Z,3.40
2022-08-05T11:58:13.145Z,3.60
2022-08-05T12:01:22.648Z,3.80
2022-08-05T12:04:28.424Z,3.50
2022-08-05T12:08:10.384Z,3.80
2022-08-05T12:11:05.530Z,3.40
2022-08-05T12:14:08.671Z,3.60
2022-08-05T12:18:04.105Z,3.70
2022-08-05T12:20:38.991Z,3.60
2022-08-05T12:24:00.063Z,3.60
2022-08-05T12:27:09.420Z,4.50
2022-08-05T12:30:15.631Z,3.80
2022-08-05T12:33:27.457Z,3.70
2022-08-05T12:36:30.430Z,3.40
2022-08-05T12:39:34.447Z,3.80
2022-08-05T12:42:40.119Z,3.60
2022-08-05T12:45:52.682Z,3.50
2022-08-05T12:49:21.027Z,3.90
2022-08-05T12:52:37.750Z,3.40
2022-08-05T12:55:46.532Z,3.90
2022-08-05T12:59:13.921Z,3.70
2022-08-05T13:02:20.171Z,3.50
2022-08-05T13:05:37.457Z,3.90
2022-08-05T13:08:40.057Z,3.50
2022-08-05T13:12:02.316Z,4.20
2022-08-05T13:15:16.294Z,6.50
2022-08-05T13:18:19.688Z,4.10
2022-08-05T13:21:22.592Z,3.80
2022-08-05T13:24:44.898Z,3.60
2022-08-05T13:27:56.230Z,3.60
2022-08-05T13:30:59.346Z,3.70
2022-08-05T13:34:23.040Z,3.30
2022-08-05T13:37:34.886Z,3.80
2022-08-05T13:40:51.939Z,3.60
2022-08-05T13:43:55.348Z,3.80
2022-08-05T13:47:02.229Z,4.00
2022-08-05T13:50:14.835Z,3.90
2022-08-05T13:53:18.508Z,3.70
2022-08-05T13:56:20.577Z,3.50
2022-08-05T13:59:24.069Z,3.40
2022-08-05T14:02:29.892Z,3.60
2022-08-05T14:06:04.680Z,3.40
2022-08-05T14:08:59.526Z,3.40
2022-08-05T14:12:17.224Z,3.70
2022-08-05T14:16:04.633Z,3.50
2022-08-05T14:18:42.455Z,3.40
2022-08-05T14:22:08.831Z,3.60
2022-08-05T14:25:21.394Z,3.50
2022-08-05T14:28:26.513Z,3.60
2022-08-05T14:32:02.333Z,3.60
2022-08-05T14:34:51.701Z,3.40
2022-08-05T14:37:55.688Z,3.60
2022-08-05T14:40:57.808Z,3.40
2022-08-05T14:44:09.509Z,3.60
2022-08-05T14:47:11.962Z,3.50
2022-08-05T14:50:17.730Z,3.50
2022-08-05T14:53:20.689Z,3.20
2022-08-05T14:56:23.821Z,3.40
2022-08-05T14:59:29.173Z,3.40
2022-08-05T15:02:32.187Z,3.60
2022-08-05T15:06:08.294Z,3.70
2022-08-05T15:08:59.517Z,3.80
2022-08-05T15:12:06.205Z,3.50
2022-08-05T15:15:15.567Z,3.70
2022-08-05T15:18:17.853Z,3.80
2022-08-05T15:21:21.036Z,3.70
2022-08-05T15:24:23.124Z,3.70
2022-08-05T15:27:25.975Z,3.80
2022-08-05T15:30:28.725Z,3.80
2022-08-05T15:34:04.175Z,4.00
2022-08-05T15:36:52.148Z,4.20
2022-08-05T15:40:58.489Z,4.10
2022-08-05T15:43:20.473Z,4.20
2022-08-05T15:46:24.343Z,4.50
2022-08-05T15:49:48.230Z,4.30
2022-08-05T15:52:54.753Z,4.20
2022-08-05T15:59:05.026Z,3.90
2022-08-05T16:02:09.572Z,4.40
2022-08-05T16:05:16.731Z,4.20
2022-08-05T16:08:18.462Z,4.40
2022-08-05T16:11:43.203Z,4.40
2022-08-05T16:14:43.910Z,4.20
2022-08-05T16:17:48.612Z,4.10
2022-08-05T16:21:04.818Z,4.40
2022-08-05T16:24:12.637Z,4.20
2022-08-05T16:27:16.123Z,4.30
2022-08-05T16:30:25.641Z,4.60
2022-08-05T16:33:32.288Z,4.60
2022-08-05T16:36:44.778Z,5.00
2022-08-05T16:40:06.013Z,4.50
2022-08-05T16:43:09.027Z,5.40
2022-08-05T16:46:12.945Z,5.80
2022-08-05T16:49:26.559Z,5.40
2022-08-05T16:52:33.442Z,6.70
2022-08-05T16:55:46.759Z,5.80
2022-08-05T16:58:49.069Z,5.40
2022-08-05T17:01:54.898Z,5.40
2022-08-05T17:04:57.750Z,5.40
2022-08-05T17:07:59.651Z,5.70
2022-08-05T17:11:02.358Z,5.40
2022-08-05T17:14:06.094Z,5.10
2022-08-05T17:17:14.184Z,5.40
2022-08-05T17:20:17.189Z,5.50
2022-08-05T17:23:42.024Z,5.20
2022-08-05T17:26:40.777Z,4.90
2022-08-05T17:29:43.008Z,5.40
2022-08-05T17:32:44.821Z,5.20
2022-08-05T17:36:07.423Z,5.10
2022-08-05T17:39:23.849Z,4.80
2022-08-05T17:42:31.897Z,5.30
2022-08-05T17:45:38.781Z,5.30
2022-08-05T17:48:40.713Z,5.50
2022-08-05T17:51:46.824Z,5.70
2022-08-05T17:54:52.654Z,5.90
2022-08-05T17:57:55.367Z,6.80
2022-08-05T18:00:57.117Z,7.10
2022-08-05T18:04:04.430Z,6.80
2022-08-05T18:07:08.045Z,6.60
2022-08-05T18:10:14.285Z,7.00
2022-08-05T18:13:23.037Z,7.10
2022-08-05T18:16:27.569Z,7.60
2022-08-05T18:19:30.280Z,8.90
2022-08-05T18:22:36.214Z,7.90
2022-08-05T18:25:48.130Z,7.90
2022-08-05T18:29:00.058Z,8.40
2022-08-05T18:32:01.958Z,8.00
2022-08-05T18:35:05.392Z,8.00
2022-08-05T18:38:07.753Z,8.10
2022-08-05T18:41:55.541Z,8.00
2022-08-05T18:44:35.204Z,9.00
2022-08-05T18:47:56.642Z,9.00
2022-08-05T18:52:05.558Z,8.50
2022-08-05T18:54:41.340Z,8.50
2022-08-05T18:57:53.187Z,9.10
2022-08-05T19:00:56.037Z,8.80
2022-08-05T19:03:57.854Z,12.30
2022-08-05T19:06:59.714Z,10.20
2022-08-05T19:10:02.170Z,9.70
2022-08-05T19:13:04.020Z,10.10
2022-08-05T19:16:25.324Z,13.10
2022-08-05T19:19:29.726Z,15.20
2022-08-05T19:22:32.793Z,13.90
2022-08-05T19:25:42.000Z,13.70
2022-08-05T19:28:46.372Z,12.20
2022-08-05T19:31:51.238Z,12.20
2022-08-05T19:34:55.104Z,12.30
2022-08-05T19:38:05.975Z,9.80
2022-08-05T19:41:09.136Z,9.80
2022-08-05T19:44:13.444Z,8.80
2022-08-05T19:47:16.450Z,9.10
2022-08-05T19:50:20.262Z,9.30
2022-08-05T19:54:05.174Z,9.30
2022-08-05T19:56:44.594Z,9.40
2022-08-05T19:59:56.247Z,9.30
2022-08-05T20:03:08.439Z,11.40
2022-08-05T20:06:15.305Z,13.10
2022-08-05T20:09:17.643Z,14.60
2022-08-05T20:12:19.754Z,17.80
2022-08-05T20:15:48.252Z,12.80
2022-08-05T20:18:43.526Z,15.10
2022-08-05T20:21:46.915Z,14.00
2022-08-05T20:24:48.711Z,14.90
2022-08-05T20:27:51.050Z,14.90
2022-08-05T20:30:52.899Z,15.50
2022-08-05T20:33:54.843Z,15.50
2022-08-05T20:36:57.623Z,15.60
2022-08-05T20:39:59.601Z,16.40
2022-08-05T20:43:04.066Z,17.00
2022-08-05T20:46:07.036Z,15.30
2022-08-05T20:49:08.698Z,15.60
2022-08-05T20:52:12.244Z,14.40
2022-08-05T20:55:56.479Z,15.70
2022-08-05T20:58:36.962Z,15.20
2022-08-05T21:01:39.174Z,15.50
2022-08-05T21:04:41.027Z,17.10
2022-08-05T21:07:50.427Z,17.30
2022-08-05T21:10:53.608Z,15.60
2022-08-05T21:13:56.180Z,16.30
2022-08-05T21:16:58.313Z,16.80
2022-08-05T21:20:03.100Z,16.30
2022-08-05T21:23:08.842Z,16.10
2022-08-05T21:26:14.378Z,16.10
2022-08-05T21:29:17.075Z,17.70
2022-08-05T21:32:20.140Z,14.70
2022-08-05T21:35:29.827Z,14.80
2022-08-05T21:38:32.461Z,15.50
2022-08-05T21:41:35.639Z,16.00
2022-08-05T21:44:37.750Z,15.60
2022-08-05T21:47:56.144Z,16.20
2022-08-05T21:50:59.301Z,16.60
2022-08-05T21:54:03.809Z,18.00
2022-08-05T21:57:29.751Z,15.70
2022-08-05T22:00:28.105Z,17.00
2022-08-05T22:03:48.850Z,17.00
2022-08-05T22:06:53.114Z,17.90
2022-08-05T22:09:55.077Z,20.20
2022-08-05T22:14:05.247Z,17.20
2022-08-05T22:16:41.211Z,16.30
2022-08-05T22:20:02.971Z,17.10
2022-08-05T22:23:24.429Z,18.60
2022-08-05T22:26:49.670Z,17.60
2022-08-05T22:29:54.284Z,18.70
2022-08-05T22:32:56.118Z,18.70
2022-08-05T22:36:00.017Z,18.40
2022-08-05T22:39:04.393Z,17.10
2022-08-05T22:42:15.323Z,17.10
2022-08-05T22:45:23.506Z,16.30
2022-08-05T22:48:27.199Z,18.00
2022-08-05T22:52:06.719Z,20.00
2022-08-05T22:54:50.872Z,22.20
2022-08-05T22:57:53.937Z,20.40
2022-08-05T23:00:57.202Z,18.80
2022-08-05T23:03:59.758Z,21.60
2022-08-05T23:07:01.940Z,22.10
2022-08-05T23:10:04.963Z,23.00
2022-08-05T23:13:09.785Z,27.00
2022-08-05T23:16:11.732Z,30.50
2022-08-05T23:19:25.790Z,23.90
2022-08-05T23:22:28.646Z,22.60
2022-08-05T23:25:55.024Z,20.80
2022-08-05T23:28:52.735Z,19.20
2022-08-05T23:31:55.855Z,16.90
2022-08-05T23:34:58.810Z,17.00
2022-08-05T23:38:00.988Z,16.90
2022-08-05T23:41:02.783Z,17.30
2022-08-05T23:44:08.666Z,16.30
2022-08-05T23:47:14.393Z,16.60
2022-08-05T23:50:17.179Z,16.90
2022-08-05T23:53:23.210Z,16.40
2022-08-05T23:56:30.070Z,17.60
